Desborough, United Kingdom
Current Conditions -  °F | °C
As of 2:50 AM on Friday 28 Nov 2014 (Local Time) from EGXT Reporting Station
Haze Haze  
Wind Chill:   Ceiling: 400
Heat Index:   Visibility: 1.1mi
Dew Point:   Wind: 7mph
Humidity: 100%   Direction: 90°E
Pressure: 29.62"   Gusts: NA
Location:  52.44°N, 0.82°W
Report Text: EGXT 280250Z AUTO 09006KT 1900 BR FEW001/// BKN004/// 09/09 Q1003
Loading
Personal Weather Stations






























Interactive Weather Map New forecast layout! Learn more

10-Day Weather Forecast

Advertisements
Track Severe Weather on mobile